sensor_id;sensor_type;location;lat;lon;timestamp;P1;durP1;ratioP1;P2;durP2;ratioP2
72951;SDS011;61102;51.956;5.878;2023-04-24T00:00:16;5.15;;;2.20;;
72951;SDS011;61102;51.956;5.878;2023-04-24T00:02:45;5.07;;;2.10;;
72951;SDS011;61102;51.956;5.878;2023-04-24T00:05:13;5.70;;;2.45;;
72951;SDS011;61102;51.956;5.878;2023-04-24T00:07:40;6.53;;;3.05;;
72951;SDS011;61102;51.956;5.878;2023-04-24T00:10:08;6.40;;;2.85;;
72951;SDS011;61102;51.956;5.878;2023-04-24T00:12:34;6.20;;;2.70;;
72951;SDS011;61102;51.956;5.878;2023-04-24T00:15:00;5.75;;;2.42;;
72951;SDS011;61102;51.956;5.878;2023-04-24T00:17:27;6.25;;;2.53;;
72951;SDS011;61102;51.956;5.878;2023-04-24T00:19:53;5.45;;;2.10;;
72951;SDS011;61102;51.956;5.878;2023-04-24T00:22:24;3.90;;;1.75;;
72951;SDS011;61102;51.956;5.878;2023-04-24T00:27:17;2.90;;;1.10;;
72951;SDS011;61102;51.956;5.878;2023-04-24T00:29:43;3.40;;;1.17;;
72951;SDS011;61102;51.956;5.878;2023-04-24T00:32:09;3.35;;;1.08;;
72951;SDS011;61102;51.956;5.878;2023-04-24T00:34:35;2.13;;;0.90;;
72951;SDS011;61102;51.956;5.878;2023-04-24T00:37:02;2.33;;;1.02;;
72951;SDS011;61102;51.956;5.878;2023-04-24T00:39:28;1.67;;;0.82;;
72951;SDS011;61102;51.956;5.878;2023-04-24T00:41:54;2.40;;;0.90;;
72951;SDS011;61102;51.956;5.878;2023-04-24T00:44:22;2.00;;;0.70;;
72951;SDS011;61102;51.956;5.878;2023-04-24T00:46:49;2.33;;;0.82;;
72951;SDS011;61102;51.956;5.878;2023-04-24T00:49:20;2.10;;;0.80;;
72951;SDS011;61102;51.956;5.878;2023-04-24T00:54:14;0.98;;;0.60;;
72951;SDS011;61102;51.956;5.878;2023-04-24T00:56:41;2.25;;;0.80;;
72951;SDS011;61102;51.956;5.878;2023-04-24T00:59:09;1.50;;;0.60;;
72951;SDS011;61102;51.956;5.878;2023-04-24T01:01:38;2.85;;;1.10;;
72951;SDS011;61102;51.956;5.878;2023-04-24T01:04:08;3.28;;;1.10;;
72951;SDS011;61102;51.956;5.878;2023-04-24T01:06:35;4.30;;;1.58;;
72951;SDS011;61102;51.956;5.878;2023-04-24T01:09:04;5.47;;;2.15;;
72951;SDS011;61102;51.956;5.878;2023-04-24T01:11:31;5.70;;;2.65;;
72951;SDS011;61102;51.956;5.878;2023-04-24T01:13:57;7.05;;;3.10;;
72951;SDS011;61102;51.956;5.878;2023-04-24T01:16:24;7.70;;;3.50;;
72951;SDS011;61102;51.956;5.878;2023-04-24T01:18:50;7.10;;;3.10;;
72951;SDS011;61102;51.956;5.878;2023-04-24T01:21:18;8.25;;;3.88;;
72951;SDS011;61102;51.956;5.878;2023-04-24T01:23:46;8.52;;;4.68;;
72951;SDS011;61102;51.956;5.878;2023-04-24T01:26:13;8.02;;;4.13;;
72951;SDS011;61102;51.956;5.878;2023-04-24T01:28:40;8.50;;;4.20;;
72951;SDS011;61102;51.956;5.878;2023-04-24T01:31:07;8.93;;;4.28;;
72951;SDS011;61102;51.956;5.878;2023-04-24T01:33:33;10.50;;;6.18;;
72951;SDS011;61102;51.956;5.878;2023-04-24T01:36:00;10.15;;;5.50;;
72951;SDS011;61102;51.956;5.878;2023-04-24T01:38:27;8.95;;;4.97;;
72951;SDS011;61102;51.956;5.878;2023-04-24T01:40:53;10.30;;;6.15;;
72951;SDS011;61102;51.956;5.878;2023-04-24T01:43:19;10.30;;;5.28;;
72951;SDS011;61102;51.956;5.878;2023-04-24T01:45:45;10.10;;;5.35;;
72951;SDS011;61102;51.956;5.878;2023-04-24T01:48:14;9.35;;;4.45;;
72951;SDS011;61102;51.956;5.878;2023-04-24T01:50:40;8.57;;;4.68;;
72951;SDS011;61102;51.956;5.878;2023-04-24T01:53:07;9.18;;;4.32;;
72951;SDS011;61102;51.956;5.878;2023-04-24T01:55:33;8.68;;;4.28;;
72951;SDS011;61102;51.956;5.878;2023-04-24T01:57:59;8.57;;;4.30;;
72951;SDS011;61102;51.956;5.878;2023-04-24T02:00:26;8.00;;;3.90;;
72951;SDS011;61102;51.956;5.878;2023-04-24T02:02:52;5.97;;;2.75;;
72951;SDS011;61102;51.956;5.878;2023-04-24T02:05:18;7.65;;;3.97;;
72951;SDS011;61102;51.956;5.878;2023-04-24T02:07:44;8.98;;;5.30;;
72951;SDS011;61102;51.956;5.878;2023-04-24T02:10:10;10.35;;;5.88;;
72951;SDS011;61102;51.956;5.878;2023-04-24T02:12:41;10.70;;;6.03;;
72951;SDS011;61102;51.956;5.878;2023-04-24T02:15:07;8.65;;;4.78;;
72951;SDS011;61102;51.956;5.878;2023-04-24T02:17:36;11.52;;;6.82;;
72951;SDS011;61102;51.956;5.878;2023-04-24T02:20:04;10.40;;;6.65;;
72951;SDS011;61102;51.956;5.878;2023-04-24T02:22:31;11.68;;;7.07;;
72951;SDS011;61102;51.956;5.878;2023-04-24T02:25:01;11.73;;;7.05;;
72951;SDS011;61102;51.956;5.878;2023-04-24T02:27:27;11.63;;;6.95;;
72951;SDS011;61102;51.956;5.878;2023-04-24T02:29:53;13.48;;;7.45;;
72951;SDS011;61102;51.956;5.878;2023-04-24T02:32:19;12.70;;;7.72;;
72951;SDS011;61102;51.956;5.878;2023-04-24T02:34:45;11.18;;;7.18;;
72951;SDS011;61102;51.956;5.878;2023-04-24T02:37:12;12.30;;;6.55;;
72951;SDS011;61102;51.956;5.878;2023-04-24T02:39:38;11.70;;;6.28;;
72951;SDS011;61102;51.956;5.878;2023-04-24T02:42:04;10.23;;;6.40;;
72951;SDS011;61102;51.956;5.878;2023-04-24T02:44:31;10.55;;;6.22;;
72951;SDS011;61102;51.956;5.878;2023-04-24T02:46:57;11.45;;;6.90;;
72951;SDS011;61102;51.956;5.878;2023-04-24T02:49:23;12.13;;;6.75;;
72951;SDS011;61102;51.956;5.878;2023-04-24T02:51:49;11.55;;;7.22;;
72951;SDS011;61102;51.956;5.878;2023-04-24T02:54:15;11.77;;;6.47;;
72951;SDS011;61102;51.956;5.878;2023-04-24T02:56:41;10.20;;;6.10;;
72951;SDS011;61102;51.956;5.878;2023-04-24T02:59:08;11.75;;;6.82;;
72951;SDS011;61102;51.956;5.878;2023-04-24T03:01:34;11.93;;;6.85;;
72951;SDS011;61102;51.956;5.878;2023-04-24T03:04:00;11.68;;;6.75;;
72951;SDS011;61102;51.956;5.878;2023-04-24T03:06:26;9.77;;;5.70;;
72951;SDS011;61102;51.956;5.878;2023-04-24T03:08:52;10.02;;;5.20;;
72951;SDS011;61102;51.956;5.878;2023-04-24T03:11:19;9.13;;;4.30;;
72951;SDS011;61102;51.956;5.878;2023-04-24T03:13:45;8.30;;;4.40;;
72951;SDS011;61102;51.956;5.878;2023-04-24T03:16:11;10.48;;;5.55;;
72951;SDS011;61102;51.956;5.878;2023-04-24T03:18:37;8.82;;;4.55;;
72951;SDS011;61102;51.956;5.878;2023-04-24T03:21:05;9.55;;;5.47;;
72951;SDS011;61102;51.956;5.878;2023-04-24T03:23:32;9.27;;;4.72;;
72951;SDS011;61102;51.956;5.878;2023-04-24T03:25:58;10.02;;;5.57;;
72951;SDS011;61102;51.956;5.878;2023-04-24T03:28:24;11.02;;;6.80;;
72951;SDS011;61102;51.956;5.878;2023-04-24T03:30:58;9.88;;;5.35;;
72951;SDS011;61102;51.956;5.878;2023-04-24T03:33:26;9.57;;;4.88;;
72951;SDS011;61102;51.956;5.878;2023-04-24T03:35:59;9.18;;;5.10;;
72951;SDS011;61102;51.956;5.878;2023-04-24T03:38:27;11.30;;;6.18;;
72951;SDS011;61102;51.956;5.878;2023-04-24T03:41:00;13.90;;;6.85;;
72951;SDS011;61102;51.956;5.878;2023-04-24T03:43:39;11.48;;;6.45;;
72951;SDS011;61102;51.956;5.878;2023-04-24T03:46:06;11.13;;;6.25;;
72951;SDS011;61102;51.956;5.878;2023-04-24T03:48:38;11.82;;;6.53;;
72951;SDS011;61102;51.956;5.878;2023-04-24T03:51:06;13.70;;;8.63;;
72951;SDS011;61102;51.956;5.878;2023-04-24T03:53:34;14.48;;;8.95;;
72951;SDS011;61102;51.956;5.878;2023-04-24T03:56:00;13.70;;;8.80;;
72951;SDS011;61102;51.956;5.878;2023-04-24T03:58:27;15.00;;;9.82;;
72951;SDS011;61102;51.956;5.878;2023-04-24T04:00:54;13.18;;;7.82;;
72951;SDS011;61102;51.956;5.878;2023-04-24T04:03:42;14.98;;;9.25;;
72951;SDS011;61102;51.956;5.878;2023-04-24T04:06:08;14.85;;;10.02;;
72951;SDS011;61102;51.956;5.878;2023-04-24T04:08:37;14.95;;;8.73;;
72951;SDS011;61102;51.956;5.878;2023-04-24T04:11:03;16.10;;;9.15;;
72951;SDS011;61102;51.956;5.878;2023-04-24T04:13:30;15.02;;;9.50;;
72951;SDS011;61102;51.956;5.878;2023-04-24T04:15:56;13.32;;;8.45;;
72951;SDS011;61102;51.956;5.878;2023-04-24T04:18:22;16.45;;;10.18;;
72951;SDS011;61102;51.956;5.878;2023-04-24T04:20:49;15.75;;;7.85;;
72951;SDS011;61102;51.956;5.878;2023-04-24T04:23:16;14.65;;;8.45;;
72951;SDS011;61102;51.956;5.878;2023-04-24T04:26:03;17.40;;;9.48;;
72951;SDS011;61102;51.956;5.878;2023-04-24T04:28:42;15.57;;;9.57;;
72951;SDS011;61102;51.956;5.878;2023-04-24T04:31:11;13.52;;;8.77;;
72951;SDS011;61102;51.956;5.878;2023-04-24T04:33:37;15.30;;;9.23;;
72951;SDS011;61102;51.956;5.878;2023-04-24T04:36:05;14.55;;;8.57;;
72951;SDS011;61102;51.956;5.878;2023-04-24T04:38:35;15.43;;;9.60;;
72951;SDS011;61102;51.956;5.878;2023-04-24T04:41:13;14.27;;;9.15;;
72951;SDS011;61102;51.956;5.878;2023-04-24T04:43:40;14.88;;;9.25;;
72951;SDS011;61102;51.956;5.878;2023-04-24T04:46:08;14.18;;;8.75;;
72951;SDS011;61102;51.956;5.878;2023-04-24T04:48:48;12.93;;;7.50;;
72951;SDS011;61102;51.956;5.878;2023-04-24T04:51:14;12.20;;;7.30;;
72951;SDS011;61102;51.956;5.878;2023-04-24T04:53:40;13.73;;;8.27;;
72951;SDS011;61102;51.956;5.878;2023-04-24T04:56:06;12.15;;;7.85;;
72951;SDS011;61102;51.956;5.878;2023-04-24T04:58:37;13.48;;;8.15;;
72951;SDS011;61102;51.956;5.878;2023-04-24T05:01:06;12.38;;;7.55;;
72951;SDS011;61102;51.956;5.878;2023-04-24T05:03:38;11.73;;;6.88;;
72951;SDS011;61102;51.956;5.878;2023-04-24T05:06:08;13.68;;;7.90;;
72951;SDS011;61102;51.956;5.878;2023-04-24T05:08:37;14.57;;;8.98;;
72951;SDS011;61102;51.956;5.878;2023-04-24T05:11:06;13.93;;;7.43;;
72951;SDS011;61102;51.956;5.878;2023-04-24T05:13:32;11.93;;;7.50;;
72951;SDS011;61102;51.956;5.878;2023-04-24T05:16:00;12.60;;;7.60;;
72951;SDS011;61102;51.956;5.878;2023-04-24T05:20:53;9.45;;;4.60;;
72951;SDS011;61102;51.956;5.878;2023-04-24T05:23:20;8.85;;;4.70;;
72951;SDS011;61102;51.956;5.878;2023-04-24T05:25:50;10.40;;;5.80;;
72951;SDS011;61102;51.956;5.878;2023-04-24T05:28:16;9.35;;;4.30;;
72951;SDS011;61102;51.956;5.878;2023-04-24T05:30:47;9.57;;;3.90;;
72951;SDS011;61102;51.956;5.878;2023-04-24T05:35:41;7.05;;;3.38;;
72951;SDS011;61102;51.956;5.878;2023-04-24T05:38:12;7.47;;;3.60;;
72951;SDS011;61102;51.956;5.878;2023-04-24T05:40:39;7.82;;;3.88;;
72951;SDS011;61102;51.956;5.878;2023-04-24T05:43:05;7.90;;;3.22;;
72951;SDS011;61102;51.956;5.878;2023-04-24T05:45:31;7.95;;;3.78;;
72951;SDS011;61102;51.956;5.878;2023-04-24T05:47:58;6.90;;;2.90;;
72951;SDS011;61102;51.956;5.878;2023-04-24T05:50:24;7.75;;;3.35;;
72951;SDS011;61102;51.956;5.878;2023-04-24T05:52:50;7.05;;;3.45;;
72951;SDS011;61102;51.956;5.878;2023-04-24T05:55:24;6.57;;;2.55;;
72951;SDS011;61102;51.956;5.878;2023-04-24T05:57:52;7.25;;;2.78;;
72951;SDS011;61102;51.956;5.878;2023-04-24T06:00:18;6.63;;;2.58;;
72951;SDS011;61102;51.956;5.878;2023-04-24T06:02:51;5.82;;;2.60;;
72951;SDS011;61102;51.956;5.878;2023-04-24T06:05:19;6.60;;;2.38;;
72951;SDS011;61102;51.956;5.878;2023-04-24T06:07:46;6.47;;;2.25;;
72951;SDS011;61102;51.956;5.878;2023-04-24T06:10:12;6.35;;;2.50;;
72951;SDS011;61102;51.956;5.878;2023-04-24T06:12:43;7.43;;;3.10;;
72951;SDS011;61102;51.956;5.878;2023-04-24T06:15:16;6.47;;;2.67;;
72951;SDS011;61102;51.956;5.878;2023-04-24T06:17:56;8.45;;;3.63;;
72951;SDS011;61102;51.956;5.878;2023-04-24T06:20:23;6.80;;;2.50;;
72951;SDS011;61102;51.956;5.878;2023-04-24T06:22:49;6.78;;;2.90;;
72951;SDS011;61102;51.956;5.878;2023-04-24T06:25:15;7.20;;;3.25;;
72951;SDS011;61102;51.956;5.878;2023-04-24T06:27:41;6.10;;;1.98;;
72951;SDS011;61102;51.956;5.878;2023-04-24T06:30:07;5.97;;;2.42;;
72951;SDS011;61102;51.956;5.878;2023-04-24T06:32:34;6.20;;;2.55;;
72951;SDS011;61102;51.956;5.878;2023-04-24T06:35:00;5.72;;;2.33;;
72951;SDS011;61102;51.956;5.878;2023-04-24T06:37:27;6.40;;;2.90;;
72951;SDS011;61102;51.956;5.878;2023-04-24T06:39:53;6.68;;;3.00;;
72951;SDS011;61102;51.956;5.878;2023-04-24T06:42:19;5.70;;;2.63;;
72951;SDS011;61102;51.956;5.878;2023-04-24T06:44:49;5.93;;;2.17;;
72951;SDS011;61102;51.956;5.878;2023-04-24T06:47:15;6.25;;;2.90;;
72951;SDS011;61102;51.956;5.878;2023-04-24T06:49:41;6.03;;;2.20;;
72951;SDS011;61102;51.956;5.878;2023-04-24T06:52:07;5.57;;;2.13;;
72951;SDS011;61102;51.956;5.878;2023-04-24T06:54:34;5.38;;;2.13;;
72951;SDS011;61102;51.956;5.878;2023-04-24T06:57:00;5.50;;;2.00;;
72951;SDS011;61102;51.956;5.878;2023-04-24T06:59:29;4.85;;;1.92;;
72951;SDS011;61102;51.956;5.878;2023-04-24T07:01:56;5.10;;;1.88;;
72951;SDS011;61102;51.956;5.878;2023-04-24T07:04:22;6.13;;;2.10;;
72951;SDS011;61102;51.956;5.878;2023-04-24T07:06:50;6.22;;;1.90;;
72951;SDS011;61102;51.956;5.878;2023-04-24T07:09:16;4.45;;;1.73;;
72951;SDS011;61102;51.956;5.878;2023-04-24T07:11:44;3.10;;;1.20;;
72951;SDS011;61102;51.956;5.878;2023-04-24T07:14:11;4.80;;;1.67;;
72951;SDS011;61102;51.956;5.878;2023-04-24T07:16:37;4.25;;;1.30;;
72951;SDS011;61102;51.956;5.878;2023-04-24T07:19:04;3.88;;;1.30;;
72951;SDS011;61102;51.956;5.878;2023-04-24T07:21:33;2.97;;;1.20;;
72951;SDS011;61102;51.956;5.878;2023-04-24T07:23:59;2.90;;;1.10;;
72951;SDS011;61102;51.956;5.878;2023-04-24T07:26:26;3.38;;;1.27;;
72951;SDS011;61102;51.956;5.878;2023-04-24T07:28:53;3.75;;;1.00;;
72951;SDS011;61102;51.956;5.878;2023-04-24T07:31:20;2.15;;;0.90;;
72951;SDS011;61102;51.956;5.878;2023-04-24T07:33:47;1.73;;;0.57;;
72951;SDS011;61102;51.956;5.878;2023-04-24T07:36:14;2.05;;;0.70;;
72951;SDS011;61102;51.956;5.878;2023-04-24T07:38:44;1.08;;;0.57;;
72951;SDS011;61102;51.956;5.878;2023-04-24T07:41:12;1.17;;;0.50;;
72951;SDS011;61102;51.956;5.878;2023-04-24T07:46:05;2.17;;;0.73;;
72951;SDS011;61102;51.956;5.878;2023-04-24T07:48:31;2.83;;;1.00;;
72951;SDS011;61102;51.956;5.878;2023-04-24T07:50:57;4.57;;;1.30;;
72951;SDS011;61102;51.956;5.878;2023-04-24T07:53:24;3.28;;;1.15;;
72951;SDS011;61102;51.956;5.878;2023-04-24T07:55:50;4.53;;;1.50;;
72951;SDS011;61102;51.956;5.878;2023-04-24T07:58:16;6.68;;;2.67;;
72951;SDS011;61102;51.956;5.878;2023-04-24T08:00:42;6.38;;;2.65;;
72951;SDS011;61102;51.956;5.878;2023-04-24T08:03:08;5.82;;;2.67;;
72951;SDS011;61102;51.956;5.878;2023-04-24T08:05:34;9.85;;;3.78;;
72951;SDS011;61102;51.956;5.878;2023-04-24T08:08:00;7.05;;;2.70;;
72951;SDS011;61102;51.956;5.878;2023-04-24T08:10:27;6.85;;;2.72;;
72951;SDS011;61102;51.956;5.878;2023-04-24T08:12:53;6.55;;;2.50;;
72951;SDS011;61102;51.956;5.878;2023-04-24T08:15:21;8.63;;;3.00;;
72951;SDS011;61102;51.956;5.878;2023-04-24T08:17:47;9.38;;;3.28;;
72951;SDS011;61102;51.956;5.878;2023-04-24T08:20:13;6.72;;;2.50;;
72951;SDS011;61102;51.956;5.878;2023-04-24T08:22:39;7.45;;;2.67;;
72951;SDS011;61102;51.956;5.878;2023-04-24T08:25:06;9.18;;;3.30;;
72951;SDS011;61102;51.956;5.878;2023-04-24T08:27:32;7.70;;;2.95;;
72951;SDS011;61102;51.956;5.878;2023-04-24T08:29:59;9.45;;;3.10;;
72951;SDS011;61102;51.956;5.878;2023-04-24T08:32:26;10.60;;;2.97;;
72951;SDS011;61102;51.956;5.878;2023-04-24T08:34:55;7.30;;;2.78;;
72951;SDS011;61102;51.956;5.878;2023-04-24T08:37:22;7.30;;;2.83;;
72951;SDS011;61102;51.956;5.878;2023-04-24T08:39:49;8.00;;;2.97;;
72951;SDS011;61102;51.956;5.878;2023-04-24T08:42:16;8.40;;;2.53;;
72951;SDS011;61102;51.956;5.878;2023-04-24T08:44:43;7.25;;;2.50;;
72951;SDS011;61102;51.956;5.878;2023-04-24T08:47:10;7.22;;;2.70;;
72951;SDS011;61102;51.956;5.878;2023-04-24T08:49:37;8.65;;;2.83;;
72951;SDS011;61102;51.956;5.878;2023-04-24T08:52:04;8.88;;;2.65;;
72951;SDS011;61102;51.956;5.878;2023-04-24T08:54:31;8.55;;;2.90;;
72951;SDS011;61102;51.956;5.878;2023-04-24T08:56:59;7.70;;;2.67;;
72951;SDS011;61102;51.956;5.878;2023-04-24T08:59:30;8.65;;;2.90;;
72951;SDS011;61102;51.956;5.878;2023-04-24T09:01:57;7.85;;;2.90;;
72951;SDS011;61102;51.956;5.878;2023-04-24T09:04:24;7.85;;;2.60;;
72951;SDS011;61102;51.956;5.878;2023-04-24T09:06:51;10.00;;;2.33;;
72951;SDS011;61102;51.956;5.878;2023-04-24T09:09:20;7.95;;;1.80;;
72951;SDS011;61102;51.956;5.878;2023-04-24T09:11:49;8.48;;;1.90;;
72951;SDS011;61102;51.956;5.878;2023-04-24T09:14:20;9.80;;;2.00;;
72951;SDS011;61102;51.956;5.878;2023-04-24T09:16:47;7.68;;;1.58;;
72951;SDS011;61102;51.956;5.878;2023-04-24T09:19:13;6.45;;;2.00;;
72951;SDS011;61102;51.956;5.878;2023-04-24T09:21:40;7.70;;;1.80;;
72951;SDS011;61102;51.956;5.878;2023-04-24T09:26:39;11.40;;;2.10;;
72951;SDS011;61102;51.956;5.878;2023-04-24T09:29:05;9.45;;;1.60;;
72951;SDS011;61102;51.956;5.878;2023-04-24T09:31:32;10.55;;;2.00;;
72951;SDS011;61102;51.956;5.878;2023-04-24T09:33:59;8.23;;;1.73;;
72951;SDS011;61102;51.956;5.878;2023-04-24T09:36:29;10.52;;;2.35;;
72951;SDS011;61102;51.956;5.878;2023-04-24T09:39:00;9.93;;;1.70;;
72951;SDS011;61102;51.956;5.878;2023-04-24T09:41:27;8.27;;;1.70;;
72951;SDS011;61102;51.956;5.878;2023-04-24T09:44:13;8.50;;;1.55;;
72951;SDS011;61102;51.956;5.878;2023-04-24T09:46:40;7.55;;;1.33;;
72951;SDS011;61102;51.956;5.878;2023-04-24T09:49:14;9.52;;;1.95;;
72951;SDS011;61102;51.956;5.878;2023-04-24T09:51:42;10.68;;;1.58;;
72951;SDS011;61102;51.956;5.878;2023-04-24T09:54:15;7.28;;;1.25;;
72951;SDS011;61102;51.956;5.878;2023-04-24T09:56:43;9.05;;;1.50;;
72951;SDS011;61102;51.956;5.878;2023-04-24T09:59:13;13.43;;;1.60;;
72951;SDS011;61102;51.956;5.878;2023-04-24T10:01:40;8.10;;;1.70;;
72951;SDS011;61102;51.956;5.878;2023-04-24T10:04:22;4.95;;;1.17;;
72951;SDS011;61102;51.956;5.878;2023-04-24T10:06:50;8.32;;;1.40;;
72951;SDS011;61102;51.956;5.878;2023-04-24T10:09:18;7.38;;;1.30;;
72951;SDS011;61102;51.956;5.878;2023-04-24T10:11:47;8.02;;;1.60;;
72951;SDS011;61102;51.956;5.878;2023-04-24T10:14:15;4.57;;;1.20;;
72951;SDS011;61102;51.956;5.878;2023-04-24T10:16:46;8.13;;;1.55;;
72951;SDS011;61102;51.956;5.878;2023-04-24T10:19:13;6.90;;;1.38;;
72951;SDS011;61102;51.956;5.878;2023-04-24T10:21:41;7.10;;;1.48;;
72951;SDS011;61102;51.956;5.878;2023-04-24T10:24:15;9.05;;;1.67;;
72951;SDS011;61102;51.956;5.878;2023-04-24T10:26:43;8.18;;;1.50;;
72951;SDS011;61102;51.956;5.878;2023-04-24T10:29:11;8.52;;;1.55;;
72951;SDS011;61102;51.956;5.878;2023-04-24T10:31:38;8.90;;;1.80;;
72951;SDS011;61102;51.956;5.878;2023-04-24T10:34:05;8.45;;;1.70;;
72951;SDS011;61102;51.956;5.878;2023-04-24T10:36:35;9.52;;;1.90;;
72951;SDS011;61102;51.956;5.878;2023-04-24T10:39:06;6.95;;;1.45;;
72951;SDS011;61102;51.956;5.878;2023-04-24T10:41:36;8.38;;;1.45;;
72951;SDS011;61102;51.956;5.878;2023-04-24T10:44:04;6.82;;;1.70;;
72951;SDS011;61102;51.956;5.878;2023-04-24T10:46:30;5.30;;;1.40;;
72951;SDS011;61102;51.956;5.878;2023-04-24T10:48:56;5.30;;;1.20;;
72951;SDS011;61102;51.956;5.878;2023-04-24T10:51:24;4.60;;;1.10;;
72951;SDS011;61102;51.956;5.878;2023-04-24T10:56:50;6.00;;;1.02;;
72951;SDS011;61102;51.956;5.878;2023-04-24T10:59:27;6.82;;;1.30;;
72951;SDS011;61102;51.956;5.878;2023-04-24T11:02:00;6.60;;;1.20;;
72951;SDS011;61102;51.956;5.878;2023-04-24T11:04:35;6.57;;;1.50;;
72951;SDS011;61102;51.956;5.878;2023-04-24T11:07:05;5.40;;;1.08;;
72951;SDS011;61102;51.956;5.878;2023-04-24T11:09:31;5.97;;;1.00;;
72951;SDS011;61102;51.956;5.878;2023-04-24T11:12:11;5.75;;;1.00;;
72951;SDS011;61102;51.956;5.878;2023-04-24T11:14:59;5.28;;;1.17;;
72951;SDS011;61102;51.956;5.878;2023-04-24T11:17:36;7.07;;;0.95;;
72951;SDS011;61102;51.956;5.878;2023-04-24T11:20:07;4.65;;;0.85;;
72951;SDS011;61102;51.956;5.878;2023-04-24T11:22:36;5.97;;;0.90;;
72951;SDS011;61102;51.956;5.878;2023-04-24T11:25:05;2.88;;;0.65;;
72951;SDS011;61102;51.956;5.878;2023-04-24T11:27:39;4.38;;;0.90;;
72951;SDS011;61102;51.956;5.878;2023-04-24T11:30:06;4.07;;;0.70;;
72951;SDS011;61102;51.956;5.878;2023-04-24T11:32:34;4.55;;;0.85;;
72951;SDS011;61102;51.956;5.878;2023-04-24T11:37:36;3.08;;;0.50;;
72951;SDS011;61102;51.956;5.878;2023-04-24T11:40:07;4.07;;;0.70;;
72951;SDS011;61102;51.956;5.878;2023-04-24T11:42:34;4.53;;;0.60;;
72951;SDS011;61102;51.956;5.878;2023-04-24T11:45:02;2.45;;;0.50;;
72951;SDS011;61102;51.956;5.878;2023-04-24T11:47:34;3.22;;;0.45;;
72951;SDS011;61102;51.956;5.878;2023-04-24T11:50:00;4.28;;;0.70;;
72951;SDS011;61102;51.956;5.878;2023-04-24T11:52:27;4.30;;;0.70;;
72951;SDS011;61102;51.956;5.878;2023-04-24T11:54:53;5.97;;;0.57;;
72951;SDS011;61102;51.956;5.878;2023-04-24T11:57:20;1.77;;;0.40;;
72951;SDS011;61102;51.956;5.878;2023-04-24T11:59:52;4.40;;;0.60;;
72951;SDS011;61102;51.956;5.878;2023-04-24T12:02:24;3.53;;;0.57;;
72951;SDS011;61102;51.956;5.878;2023-04-24T12:04:53;4.22;;;0.57;;
72951;SDS011;61102;51.956;5.878;2023-04-24T12:07:20;2.45;;;0.45;;
72951;SDS011;61102;51.956;5.878;2023-04-24T12:09:47;1.05;;;0.30;;
72951;SDS011;61102;51.956;5.878;2023-04-24T12:12:20;2.42;;;0.50;;
72951;SDS011;61102;51.956;5.878;2023-04-24T12:14:49;2.53;;;0.43;;
72951;SDS011;61102;51.956;5.878;2023-04-24T12:17:23;3.40;;;0.50;;
72951;SDS011;61102;51.956;5.878;2023-04-24T12:19:56;1.23;;;0.40;;
72951;SDS011;61102;51.956;5.878;2023-04-24T12:22:23;4.57;;;0.50;;
72951;SDS011;61102;51.956;5.878;2023-04-24T12:25:03;1.58;;;0.40;;
72951;SDS011;61102;51.956;5.878;2023-04-24T12:27:32;2.65;;;0.57;;
72951;SDS011;61102;51.956;5.878;2023-04-24T12:29:59;4.38;;;0.50;;
72951;SDS011;61102;51.956;5.878;2023-04-24T12:32:27;4.43;;;0.60;;
72951;SDS011;61102;51.956;5.878;2023-04-24T12:34:53;3.00;;;0.50;;
72951;SDS011;61102;51.956;5.878;2023-04-24T12:39:58;3.28;;;0.60;;
72951;SDS011;61102;51.956;5.878;2023-04-24T12:42:29;2.53;;;0.60;;
72951;SDS011;61102;51.956;5.878;2023-04-24T12:47:24;2.90;;;0.60;;
72951;SDS011;61102;51.956;5.878;2023-04-24T12:49:50;3.35;;;0.70;;
72951;SDS011;61102;51.956;5.878;2023-04-24T12:52:18;2.40;;;0.47;;
72951;SDS011;61102;51.956;5.878;2023-04-24T12:54:45;2.08;;;0.43;;
72951;SDS011;61102;51.956;5.878;2023-04-24T12:57:12;2.65;;;0.40;;
72951;SDS011;61102;51.956;5.878;2023-04-24T12:59:38;2.08;;;0.50;;
72951;SDS011;61102;51.956;5.878;2023-04-24T13:02:05;3.83;;;0.70;;
72951;SDS011;61102;51.956;5.878;2023-04-24T13:06:58;2.88;;;0.50;;
72951;SDS011;61102;51.956;5.878;2023-04-24T13:09:27;1.58;;;0.40;;
72951;SDS011;61102;51.956;5.878;2023-04-24T13:11:53;3.67;;;0.50;;
72951;SDS011;61102;51.956;5.878;2023-04-24T13:14:20;3.58;;;0.52;;
72951;SDS011;61102;51.956;5.878;2023-04-24T13:16:48;3.80;;;0.50;;
72951;SDS011;61102;51.956;5.878;2023-04-24T13:19:14;4.65;;;0.70;;
72951;SDS011;61102;51.956;5.878;2023-04-24T13:21:41;3.72;;;0.57;;
72951;SDS011;61102;51.956;5.878;2023-04-24T13:24:07;3.70;;;0.70;;
72951;SDS011;61102;51.956;5.878;2023-04-24T13:26:34;3.80;;;0.50;;
72951;SDS011;61102;51.956;5.878;2023-04-24T13:29:01;3.15;;;0.60;;
72951;SDS011;61102;51.956;5.878;2023-04-24T13:31:27;3.65;;;0.60;;
72951;SDS011;61102;51.956;5.878;2023-04-24T13:33:53;6.53;;;0.80;;
72951;SDS011;61102;51.956;5.878;2023-04-24T13:36:19;4.93;;;0.70;;
72951;SDS011;61102;51.956;5.878;2023-04-24T13:38:45;4.93;;;0.73;;
72951;SDS011;61102;51.956;5.878;2023-04-24T13:41:11;8.15;;;1.02;;
72951;SDS011;61102;51.956;5.878;2023-04-24T13:43:37;6.28;;;0.93;;
72951;SDS011;61102;51.956;5.878;2023-04-24T13:46:03;5.97;;;1.00;;
72951;SDS011;61102;51.956;5.878;2023-04-24T13:48:29;7.88;;;1.08;;
72951;SDS011;61102;51.956;5.878;2023-04-24T13:50:57;7.80;;;1.27;;
72951;SDS011;61102;51.956;5.878;2023-04-24T13:53:23;9.25;;;1.10;;
72951;SDS011;61102;51.956;5.878;2023-04-24T13:55:49;6.25;;;1.05;;
72951;SDS011;61102;51.956;5.878;2023-04-24T13:58:15;8.80;;;1.33;;
72951;SDS011;61102;51.956;5.878;2023-04-24T14:00:41;9.45;;;1.40;;
72951;SDS011;61102;51.956;5.878;2023-04-24T14:03:07;8.00;;;0.80;;
72951;SDS011;61102;51.956;5.878;2023-04-24T14:05:33;3.47;;;0.70;;
72951;SDS011;61102;51.956;5.878;2023-04-24T14:07:59;5.72;;;0.80;;
72951;SDS011;61102;51.956;5.878;2023-04-24T14:10:26;5.28;;;0.73;;
72951;SDS011;61102;51.956;5.878;2023-04-24T14:12:52;4.25;;;0.73;;
72951;SDS011;61102;51.956;5.878;2023-04-24T14:15:19;5.32;;;0.90;;
72951;SDS011;61102;51.956;5.878;2023-04-24T14:17:45;5.75;;;1.05;;
72951;SDS011;61102;51.956;5.878;2023-04-24T14:20:12;9.07;;;1.13;;
72951;SDS011;61102;51.956;5.878;2023-04-24T14:22:38;6.03;;;0.85;;
72951;SDS011;61102;51.956;5.878;2023-04-24T14:25:04;5.75;;;1.05;;
72951;SDS011;61102;51.956;5.878;2023-04-24T14:27:31;5.30;;;0.90;;
72951;SDS011;61102;51.956;5.878;2023-04-24T14:29:57;4.88;;;0.98;;
72951;SDS011;61102;51.956;5.878;2023-04-24T14:32:23;7.00;;;1.23;;
72951;SDS011;61102;51.956;5.878;2023-04-24T14:34:49;6.10;;;1.20;;
72951;SDS011;61102;51.956;5.878;2023-04-24T14:37:15;6.72;;;1.00;;
72951;SDS011;61102;51.956;5.878;2023-04-24T14:39:42;4.88;;;1.00;;
72951;SDS011;61102;51.956;5.878;2023-04-24T14:42:08;6.32;;;1.08;;
72951;SDS011;61102;51.956;5.878;2023-04-24T14:44:34;6.97;;;1.13;;
72951;SDS011;61102;51.956;5.878;2023-04-24T14:47:00;5.65;;;1.00;;
72951;SDS011;61102;51.956;5.878;2023-04-24T14:49:26;4.82;;;0.90;;
72951;SDS011;61102;51.956;5.878;2023-04-24T14:51:52;6.82;;;1.10;;
72951;SDS011;61102;51.956;5.878;2023-04-24T14:54:18;5.03;;;0.90;;
72951;SDS011;61102;51.956;5.878;2023-04-24T14:56:45;6.47;;;1.00;;
72951;SDS011;61102;51.956;5.878;2023-04-24T14:59:11;8.38;;;1.10;;
72951;SDS011;61102;51.956;5.878;2023-04-24T15:01:37;5.47;;;1.10;;
72951;SDS011;61102;51.956;5.878;2023-04-24T15:04:03;3.70;;;0.88;;
72951;SDS011;61102;51.956;5.878;2023-04-24T15:06:29;6.30;;;0.98;;
72951;SDS011;61102;51.956;5.878;2023-04-24T15:08:57;7.43;;;1.10;;
72951;SDS011;61102;51.956;5.878;2023-04-24T15:11:23;6.00;;;1.00;;
72951;SDS011;61102;51.956;5.878;2023-04-24T15:13:49;7.40;;;0.90;;
72951;SDS011;61102;51.956;5.878;2023-04-24T15:16:15;5.95;;;1.00;;